sensor_id;sensor_type;location;lat;lon;timestamp;temperature;humidity
4308;DHT22;2167;53.448;9.984;2023-02-01T00:01:31;5.90;23.90
4308;DHT22;2167;53.448;9.984;2023-02-01T00:03:56;6.00;23.90
4308;DHT22;2167;53.448;9.984;2023-02-01T00:06:22;5.90;23.20
4308;DHT22;2167;53.448;9.984;2023-02-01T00:08:48;5.80;22.20
4308;DHT22;2167;53.448;9.984;2023-02-01T00:11:14;5.80;22.90
4308;DHT22;2167;53.448;9.984;2023-02-01T00:13:41;5.70;22.30
4308;DHT22;2167;53.448;9.984;2023-02-01T00:16:15;5.70;22.00
4308;DHT22;2167;53.448;9.984;2023-02-01T00:18:42;5.70;22.00
4308;DHT22;2167;53.448;9.984;2023-02-01T00:21:10;5.70;22.10
4308;DHT22;2167;53.448;9.984;2023-02-01T00:23:37;5.70;22.20
4308;DHT22;2167;53.448;9.984;2023-02-01T00:26:05;5.70;22.90
4308;DHT22;2167;53.448;9.984;2023-02-01T00:28:31;5.70;23.10
4308;DHT22;2167;53.448;9.984;2023-02-01T00:31:02;5.70;22.60
4308;DHT22;2167;53.448;9.984;2023-02-01T00:33:29;5.70;22.70
4308;DHT22;2167;53.448;9.984;2023-02-01T00:36:04;5.70;23.00
4308;DHT22;2167;53.448;9.984;2023-02-01T00:38:31;5.80;23.20
4308;DHT22;2167;53.448;9.984;2023-02-01T00:41:10;5.80;23.20
4308;DHT22;2167;53.448;9.984;2023-02-01T00:43:36;5.80;23.60
4308;DHT22;2167;53.448;9.984;2023-02-01T00:46:01;5.90;23.80
4308;DHT22;2167;53.448;9.984;2023-02-01T00:48:28;5.90;23.70
4308;DHT22;2167;53.448;9.984;2023-02-01T00:50:53;5.90;23.30
4308;DHT22;2167;53.448;9.984;2023-02-01T00:53:19;5.90;23.20
4308;DHT22;2167;53.448;9.984;2023-02-01T00:55:48;6.00;23.20
4308;DHT22;2167;53.448;9.984;2023-02-01T00:58:14;6.00;23.10
4308;DHT22;2167;53.448;9.984;2023-02-01T01:00:40;6.00;22.70
4308;DHT22;2167;53.448;9.984;2023-02-01T01:03:06;6.00;22.60
4308;DHT22;2167;53.448;9.984;2023-02-01T01:05:47;6.00;23.00
4308;DHT22;2167;53.448;9.984;2023-02-01T01:08:14;6.00;23.00
4308;DHT22;2167;53.448;9.984;2023-02-01T01:10:40;6.00;22.90
4308;DHT22;2167;53.448;9.984;2023-02-01T01:13:06;6.00;22.80
4308;DHT22;2167;53.448;9.984;2023-02-01T01:15:36;6.10;22.80
4308;DHT22;2167;53.448;9.984;2023-02-01T01:18:02;6.20;22.10
4308;DHT22;2167;53.448;9.984;2023-02-01T01:20:27;6.10;22.10
4308;DHT22;2167;53.448;9.984;2023-02-01T01:22:53;6.20;22.00
4308;DHT22;2167;53.448;9.984;2023-02-01T01:25:19;6.20;21.70
4308;DHT22;2167;53.448;9.984;2023-02-01T01:27:44;6.20;21.80
4308;DHT22;2167;53.448;9.984;2023-02-01T01:30:10;6.20;21.60
4308;DHT22;2167;53.448;9.984;2023-02-01T01:32:36;6.10;21.60
4308;DHT22;2167;53.448;9.984;2023-02-01T01:35:02;6.20;21.80
4308;DHT22;2167;53.448;9.984;2023-02-01T01:37:27;6.20;21.90
4308;DHT22;2167;53.448;9.984;2023-02-01T01:39:53;6.20;22.00
4308;DHT22;2167;53.448;9.984;2023-02-01T01:42:21;6.20;22.20
4308;DHT22;2167;53.448;9.984;2023-02-01T01:45:06;6.20;22.10
4308;DHT22;2167;53.448;9.984;2023-02-01T01:47:39;6.20;21.80
4308;DHT22;2167;53.448;9.984;2023-02-01T01:50:07;6.20;21.90
4308;DHT22;2167;53.448;9.984;2023-02-01T01:52:36;6.20;21.70
4308;DHT22;2167;53.448;9.984;2023-02-01T01:55:02;6.20;21.90
4308;DHT22;2167;53.448;9.984;2023-02-01T01:57:37;6.20;21.70
4308;DHT22;2167;53.448;9.984;2023-02-01T02:00:08;6.10;21.50
4308;DHT22;2167;53.448;9.984;2023-02-01T02:02:36;6.10;21.40
4308;DHT22;2167;53.448;9.984;2023-02-01T02:05:04;6.10;21.90
4308;DHT22;2167;53.448;9.984;2023-02-01T02:07:34;6.10;22.00
4308;DHT22;2167;53.448;9.984;2023-02-01T02:10:01;6.10;22.40
4308;DHT22;2167;53.448;9.984;2023-02-01T02:12:28;6.00;22.40
4308;DHT22;2167;53.448;9.984;2023-02-01T02:14:54;6.00;22.80
4308;DHT22;2167;53.448;9.984;2023-02-01T02:17:29;6.00;23.60
4308;DHT22;2167;53.448;9.984;2023-02-01T02:25:21;6.00;24.10
4308;DHT22;2167;53.448;9.984;2023-02-01T02:30:51;6.00;23.80
4308;DHT22;2167;53.448;9.984;2023-02-01T02:33:34;6.10;23.90
4308;DHT22;2167;53.448;9.984;2023-02-01T02:36:18;6.10;23.50
4308;DHT22;2167;53.448;9.984;2023-02-01T02:39:02;6.00;23.30
4308;DHT22;2167;53.448;9.984;2023-02-01T02:41:44;6.10;23.40
4308;DHT22;2167;53.448;9.984;2023-02-01T02:44:54;6.10;23.90
4308;DHT22;2167;53.448;9.984;2023-02-01T02:47:58;6.10;24.40
4308;DHT22;2167;53.448;9.984;2023-02-01T02:50:42;6.00;24.30
4308;DHT22;2167;53.448;9.984;2023-02-01T02:53:34;6.00;24.30
4308;DHT22;2167;53.448;9.984;2023-02-01T02:56:21;6.00;25.20
4308;DHT22;2167;53.448;9.984;2023-02-01T02:59:08;6.00;26.40
4308;DHT22;2167;53.448;9.984;2023-02-01T03:01:54;5.90;26.90
4308;DHT22;2167;53.448;9.984;2023-02-01T03:04:38;5.90;27.40
4308;DHT22;2167;53.448;9.984;2023-02-01T03:07:15;5.80;27.40
4308;DHT22;2167;53.448;9.984;2023-02-01T03:10:05;5.80;27.40
4308;DHT22;2167;53.448;9.984;2023-02-01T03:12:35;5.70;27.40
4308;DHT22;2167;53.448;9.984;2023-02-01T03:15:31;5.80;28.00
4308;DHT22;2167;53.448;9.984;2023-02-01T03:17:58;5.90;28.80
4308;DHT22;2167;53.448;9.984;2023-02-01T03:20:26;5.90;29.90
4308;DHT22;2167;53.448;9.984;2023-02-01T03:22:53;5.80;29.80
4308;DHT22;2167;53.448;9.984;2023-02-01T03:25:25;5.80;29.80
4308;DHT22;2167;53.448;9.984;2023-02-01T03:27:57;5.70;30.00
4308;DHT22;2167;53.448;9.984;2023-02-01T03:30:29;5.70;30.40
4308;DHT22;2167;53.448;9.984;2023-02-01T03:32:59;5.70;31.40
4308;DHT22;2167;53.448;9.984;2023-02-01T03:35:43;5.70;32.30
4308;DHT22;2167;53.448;9.984;2023-02-01T03:40:58;5.70;33.40
4308;DHT22;2167;53.448;9.984;2023-02-01T03:43:30;5.60;33.10
4308;DHT22;2167;53.448;9.984;2023-02-01T03:46:03;5.60;33.50
4308;DHT22;2167;53.448;9.984;2023-02-01T03:48:30;5.50;33.50
4308;DHT22;2167;53.448;9.984;2023-02-01T03:50:58;5.50;33.80
4308;DHT22;2167;53.448;9.984;2023-02-01T03:53:26;5.50;34.20
4308;DHT22;2167;53.448;9.984;2023-02-01T03:55:53;5.50;34.60
4308;DHT22;2167;53.448;9.984;2023-02-01T03:58:21;5.50;34.30
4308;DHT22;2167;53.448;9.984;2023-02-01T04:00:56;5.50;33.80
4308;DHT22;2167;53.448;9.984;2023-02-01T04:03:23;5.40;33.30
4308;DHT22;2167;53.448;9.984;2023-02-01T04:05:51;5.40;33.00
4308;DHT22;2167;53.448;9.984;2023-02-01T04:08:20;5.40;33.00
4308;DHT22;2167;53.448;9.984;2023-02-01T04:10:45;5.40;32.50
4308;DHT22;2167;53.448;9.984;2023-02-01T04:13:13;5.30;31.90
4308;DHT22;2167;53.448;9.984;2023-02-01T04:15:39;5.30;32.00
4308;DHT22;2167;53.448;9.984;2023-02-01T04:18:05;5.20;32.10
4308;DHT22;2167;53.448;9.984;2023-02-01T04:20:31;5.20;31.80
4308;DHT22;2167;53.448;9.984;2023-02-01T04:22:57;5.20;31.90
4308;DHT22;2167;53.448;9.984;2023-02-01T04:25:22;5.20;32.10
4308;DHT22;2167;53.448;9.984;2023-02-01T04:27:48;5.20;31.90
4308;DHT22;2167;53.448;9.984;2023-02-01T04:30:14;5.10;32.90
4308;DHT22;2167;53.448;9.984;2023-02-01T04:32:40;5.20;32.60
4308;DHT22;2167;53.448;9.984;2023-02-01T04:35:06;5.20;31.50
4308;DHT22;2167;53.448;9.984;2023-02-01T04:37:33;5.20;31.40
4308;DHT22;2167;53.448;9.984;2023-02-01T04:39:58;5.20;31.50
4308;DHT22;2167;53.448;9.984;2023-02-01T04:42:24;5.20;31.90
4308;DHT22;2167;53.448;9.984;2023-02-01T04:44:50;5.10;32.30
4308;DHT22;2167;53.448;9.984;2023-02-01T04:47:16;5.10;32.60
4308;DHT22;2167;53.448;9.984;2023-02-01T04:49:42;5.10;33.30
4308;DHT22;2167;53.448;9.984;2023-02-01T04:52:07;5.00;33.10
4308;DHT22;2167;53.448;9.984;2023-02-01T04:54:33;5.10;34.00
4308;DHT22;2167;53.448;9.984;2023-02-01T04:56:59;5.00;34.20
4308;DHT22;2167;53.448;9.984;2023-02-01T04:59:25;4.90;34.50
4308;DHT22;2167;53.448;9.984;2023-02-01T05:01:51;5.00;35.10
4308;DHT22;2167;53.448;9.984;2023-02-01T05:04:16;5.00;35.10
4308;DHT22;2167;53.448;9.984;2023-02-01T05:06:44;4.90;35.80
4308;DHT22;2167;53.448;9.984;2023-02-01T05:09:09;4.90;35.00
4308;DHT22;2167;53.448;9.984;2023-02-01T05:11:35;4.90;35.90
4308;DHT22;2167;53.448;9.984;2023-02-01T05:14:19;4.90;35.10
4308;DHT22;2167;53.448;9.984;2023-02-01T05:16:45;4.70;34.30
4308;DHT22;2167;53.448;9.984;2023-02-01T05:19:10;4.60;33.70
4308;DHT22;2167;53.448;9.984;2023-02-01T05:21:36;4.50;34.10
4308;DHT22;2167;53.448;9.984;2023-02-01T05:24:02;4.40;33.60
4308;DHT22;2167;53.448;9.984;2023-02-01T05:26:45;4.20;32.90
4308;DHT22;2167;53.448;9.984;2023-02-01T05:29:11;4.00;31.70
4308;DHT22;2167;53.448;9.984;2023-02-01T05:31:37;4.00;29.90
4308;DHT22;2167;53.448;9.984;2023-02-01T05:34:04;3.70;28.90
4308;DHT22;2167;53.448;9.984;2023-02-01T05:36:30;3.40;29.20
4308;DHT22;2167;53.448;9.984;2023-02-01T05:38:55;3.30;30.20
4308;DHT22;2167;53.448;9.984;2023-02-01T05:41:21;3.20;31.00
4308;DHT22;2167;53.448;9.984;2023-02-01T05:43:46;3.10;32.30
4308;DHT22;2167;53.448;9.984;2023-02-01T05:46:12;3.10;33.30
4308;DHT22;2167;53.448;9.984;2023-02-01T05:48:40;3.10;34.00
4308;DHT22;2167;53.448;9.984;2023-02-01T05:51:05;3.10;34.70
4308;DHT22;2167;53.448;9.984;2023-02-01T05:53:32;3.10;35.30
4308;DHT22;2167;53.448;9.984;2023-02-01T05:55:57;3.10;35.30
4308;DHT22;2167;53.448;9.984;2023-02-01T05:58:23;3.10;35.90
4308;DHT22;2167;53.448;9.984;2023-02-01T06:00:48;3.10;36.00
4308;DHT22;2167;53.448;9.984;2023-02-01T06:03:14;3.10;36.40
4308;DHT22;2167;53.448;9.984;2023-02-01T06:05:39;3.10;36.70
4308;DHT22;2167;53.448;9.984;2023-02-01T06:08:05;3.20;37.50
4308;DHT22;2167;53.448;9.984;2023-02-01T06:10:33;3.20;38.00
4308;DHT22;2167;53.448;9.984;2023-02-01T06:12:58;3.30;38.50
4308;DHT22;2167;53.448;9.984;2023-02-01T06:15:24;3.30;39.10
4308;DHT22;2167;53.448;9.984;2023-02-01T06:17:49;3.40;39.30
4308;DHT22;2167;53.448;9.984;2023-02-01T06:20:16;3.50;39.60
4308;DHT22;2167;53.448;9.984;2023-02-01T06:22:42;3.60;39.70
4308;DHT22;2167;53.448;9.984;2023-02-01T06:25:09;3.60;39.80
4308;DHT22;2167;53.448;9.984;2023-02-01T06:27:35;3.70;39.90
4308;DHT22;2167;53.448;9.984;2023-02-01T06:30:02;3.80;39.80
4308;DHT22;2167;53.448;9.984;2023-02-01T06:32:28;3.90;39.90
4308;DHT22;2167;53.448;9.984;2023-02-01T06:34:54;4.00;39.70
4308;DHT22;2167;53.448;9.984;2023-02-01T06:37:21;4.10;39.60
4308;DHT22;2167;53.448;9.984;2023-02-01T06:39:48;4.00;39.20
4308;DHT22;2167;53.448;9.984;2023-02-01T06:42:14;4.10;39.30
4308;DHT22;2167;53.448;9.984;2023-02-01T06:44:39;4.20;39.60
4308;DHT22;2167;53.448;9.984;2023-02-01T06:47:05;4.20;39.50
4308;DHT22;2167;53.448;9.984;2023-02-01T06:49:31;4.20;39.80
4308;DHT22;2167;53.448;9.984;2023-02-01T06:51:56;4.30;40.10
4308;DHT22;2167;53.448;9.984;2023-02-01T06:54:25;4.30;40.20
4308;DHT22;2167;53.448;9.984;2023-02-01T06:56:51;4.40;40.20
4308;DHT22;2167;53.448;9.984;2023-02-01T06:59:17;4.40;40.20
4308;DHT22;2167;53.448;9.984;2023-02-01T07:01:42;4.40;40.30
4308;DHT22;2167;53.448;9.984;2023-02-01T07:04:10;4.50;40.20
4308;DHT22;2167;53.448;9.984;2023-02-01T07:06:37;4.40;39.90
4308;DHT22;2167;53.448;9.984;2023-02-01T07:09:02;4.50;39.90
4308;DHT22;2167;53.448;9.984;2023-02-01T07:11:28;4.60;39.80
4308;DHT22;2167;53.448;9.984;2023-02-01T07:13:54;4.60;39.60
4308;DHT22;2167;53.448;9.984;2023-02-01T07:16:20;4.60;39.40
4308;DHT22;2167;53.448;9.984;2023-02-01T07:18:47;4.60;39.30
4308;DHT22;2167;53.448;9.984;2023-02-01T07:21:14;4.60;39.20
4308;DHT22;2167;53.448;9.984;2023-02-01T07:23:40;4.60;39.10
4308;DHT22;2167;53.448;9.984;2023-02-01T07:26:06;4.60;39.10
4308;DHT22;2167;53.448;9.984;2023-02-01T07:28:34;4.60;38.90
4308;DHT22;2167;53.448;9.984;2023-02-01T07:31:08;4.50;38.90
4308;DHT22;2167;53.448;9.984;2023-02-01T07:33:34;4.50;38.90
4308;DHT22;2167;53.448;9.984;2023-02-01T07:36:02;4.60;38.80
4308;DHT22;2167;53.448;9.984;2023-02-01T07:38:28;4.60;39.50
4308;DHT22;2167;53.448;9.984;2023-02-01T07:41:01;4.60;38.80
4308;DHT22;2167;53.448;9.984;2023-02-01T07:43:28;4.70;38.90
4308;DHT22;2167;53.448;9.984;2023-02-01T07:45:55;4.80;39.10
4308;DHT22;2167;53.448;9.984;2023-02-01T07:48:22;4.80;39.10
4308;DHT22;2167;53.448;9.984;2023-02-01T07:50:48;4.90;39.10
4308;DHT22;2167;53.448;9.984;2023-02-01T07:53:13;4.90;39.20
4308;DHT22;2167;53.448;9.984;2023-02-01T07:55:39;4.90;39.60
4308;DHT22;2167;53.448;9.984;2023-02-01T07:58:05;5.00;39.80
4308;DHT22;2167;53.448;9.984;2023-02-01T08:00:30;5.10;40.00
4308;DHT22;2167;53.448;9.984;2023-02-01T08:03:14;5.20;40.00
4308;DHT22;2167;53.448;9.984;2023-02-01T08:05:40;5.10;39.60
4308;DHT22;2167;53.448;9.984;2023-02-01T08:08:06;5.20;39.40
4308;DHT22;2167;53.448;9.984;2023-02-01T08:10:32;5.20;38.90
4308;DHT22;2167;53.448;9.984;2023-02-01T08:12:59;5.20;38.50
4308;DHT22;2167;53.448;9.984;2023-02-01T08:15:26;5.30;38.10
4308;DHT22;2167;53.448;9.984;2023-02-01T08:17:53;5.30;37.50
4308;DHT22;2167;53.448;9.984;2023-02-01T08:20:20;5.40;37.30
4308;DHT22;2167;53.448;9.984;2023-02-01T08:22:52;5.30;37.00
4308;DHT22;2167;53.448;9.984;2023-02-01T08:25:18;5.30;36.90
4308;DHT22;2167;53.448;9.984;2023-02-01T08:27:44;5.40;37.30
4308;DHT22;2167;53.448;9.984;2023-02-01T08:30:11;5.40;37.40
4308;DHT22;2167;53.448;9.984;2023-02-01T08:32:37;5.40;37.30
4308;DHT22;2167;53.448;9.984;2023-02-01T08:35:03;5.50;37.20
4308;DHT22;2167;53.448;9.984;2023-02-01T08:37:29;5.60;37.40
4308;DHT22;2167;53.448;9.984;2023-02-01T08:39:55;5.70;37.90
4308;DHT22;2167;53.448;9.984;2023-02-01T08:42:21;5.80;37.40
4308;DHT22;2167;53.448;9.984;2023-02-01T08:45:05;5.80;37.30
4308;DHT22;2167;53.448;9.984;2023-02-01T08:47:33;5.80;36.00
4308;DHT22;2167;53.448;9.984;2023-02-01T08:49:59;5.90;35.10
4308;DHT22;2167;53.448;9.984;2023-02-01T08:52:25;5.90;34.80
4308;DHT22;2167;53.448;9.984;2023-02-01T08:54:51;5.90;34.20
4308;DHT22;2167;53.448;9.984;2023-02-01T08:57:16;6.00;34.10
4308;DHT22;2167;53.448;9.984;2023-02-01T08:59:42;6.00;33.80
4308;DHT22;2167;53.448;9.984;2023-02-01T09:02:12;6.00;33.20
4308;DHT22;2167;53.448;9.984;2023-02-01T09:04:38;6.10;33.30
4308;DHT22;2167;53.448;9.984;2023-02-01T09:07:04;6.10;32.60
4308;DHT22;2167;53.448;9.984;2023-02-01T09:09:29;6.10;32.10
4308;DHT22;2167;53.448;9.984;2023-02-01T09:11:55;6.10;32.40
4308;DHT22;2167;53.448;9.984;2023-02-01T09:14:20;6.10;32.50
4308;DHT22;2167;53.448;9.984;2023-02-01T09:16:46;6.10;31.70
4308;DHT22;2167;53.448;9.984;2023-02-01T09:19:12;6.20;31.70
4308;DHT22;2167;53.448;9.984;2023-02-01T09:21:37;6.20;31.70
4308;DHT22;2167;53.448;9.984;2023-02-01T09:24:03;6.30;31.50
4308;DHT22;2167;53.448;9.984;2023-02-01T09:26:29;6.20;30.80
4308;DHT22;2167;53.448;9.984;2023-02-01T09:28:55;6.20;30.40
4308;DHT22;2167;53.448;9.984;2023-02-01T09:31:21;6.20;30.70
4308;DHT22;2167;53.448;9.984;2023-02-01T09:33:46;6.20;31.70
4308;DHT22;2167;53.448;9.984;2023-02-01T09:36:12;6.30;32.90
4308;DHT22;2167;53.448;9.984;2023-02-01T09:38:40;6.30;33.40
4308;DHT22;2167;53.448;9.984;2023-02-01T09:41:26;6.40;32.80
4308;DHT22;2167;53.448;9.984;2023-02-01T09:44:17;6.40;31.70
4308;DHT22;2167;53.448;9.984;2023-02-01T09:46:46;6.50;31.60
4308;DHT22;2167;53.448;9.984;2023-02-01T09:49:20;6.50;30.90
4308;DHT22;2167;53.448;9.984;2023-02-01T09:51:49;6.50;31.10
4308;DHT22;2167;53.448;9.984;2023-02-01T09:54:27;6.60;30.10
4308;DHT22;2167;53.448;9.984;2023-02-01T09:57:13;6.60;29.70
4308;DHT22;2167;53.448;9.984;2023-02-01T09:59:43;6.60;29.00
4308;DHT22;2167;53.448;9.984;2023-02-01T10:02:17;6.60;29.30
4308;DHT22;2167;53.448;9.984;2023-02-01T10:04:44;6.60;29.20
4308;DHT22;2167;53.448;9.984;2023-02-01T10:07:38;6.70;29.10
4308;DHT22;2167;53.448;9.984;2023-02-01T10:12:58;6.70;28.10
4308;DHT22;2167;53.448;9.984;2023-02-01T10:15:49;6.70;28.70
4308;DHT22;2167;53.448;9.984;2023-02-01T10:18:51;6.80;29.40
4308;DHT22;2167;53.448;9.984;2023-02-01T10:21:41;6.70;28.80
4308;DHT22;2167;53.448;9.984;2023-02-01T10:24:59;6.70;29.00
4308;DHT22;2167;53.448;9.984;2023-02-01T10:27:14;6.70;28.50
4308;DHT22;2167;53.448;9.984;2023-02-01T10:29:43;6.60;28.60
4308;DHT22;2167;53.448;9.984;2023-02-01T10:32:24;6.60;29.10
4308;DHT22;2167;53.448;9.984;2023-02-01T10:35:02;6.60;29.40
4308;DHT22;2167;53.448;9.984;2023-02-01T10:37:32;6.50;30.40
4308;DHT22;2167;53.448;9.984;2023-02-01T10:42:43;6.50;32.10
4308;DHT22;2167;53.448;9.984;2023-02-01T10:45:14;6.50;32.80
4308;DHT22;2167;53.448;9.984;2023-02-01T10:47:42;6.50;33.00
4308;DHT22;2167;53.448;9.984;2023-02-01T10:55:43;6.40;33.20
4308;DHT22;2167;53.448;9.984;2023-02-01T10:58:28;6.40;33.60
4308;DHT22;2167;53.448;9.984;2023-02-01T11:01:03;6.40;33.90
4308;DHT22;2167;53.448;9.984;2023-02-01T11:03:34;6.40;33.00
4308;DHT22;2167;53.448;9.984;2023-02-01T11:08:46;6.50;32.70
4308;DHT22;2167;53.448;9.984;2023-02-01T11:11:12;6.30;30.90
4308;DHT22;2167;53.448;9.984;2023-02-01T11:13:39;6.20;31.10
4308;DHT22;2167;53.448;9.984;2023-02-01T11:16:06;6.10;32.10
4308;DHT22;2167;53.448;9.984;2023-02-01T11:18:35;6.10;33.50
4308;DHT22;2167;53.448;9.984;2023-02-01T11:21:02;6.20;34.60
4308;DHT22;2167;53.448;9.984;2023-02-01T11:23:29;6.30;35.20
4308;DHT22;2167;53.448;9.984;2023-02-01T11:25:57;6.20;35.70
4308;DHT22;2167;53.448;9.984;2023-02-01T11:28:29;6.20;36.30
4308;DHT22;2167;53.448;9.984;2023-02-01T11:30:58;6.20;36.20
4308;DHT22;2167;53.448;9.984;2023-02-01T11:33:29;6.30;36.60
4308;DHT22;2167;53.448;9.984;2023-02-01T11:35:57;6.30;36.50
4308;DHT22;2167;53.448;9.984;2023-02-01T11:38:31;6.30;36.20
4308;DHT22;2167;53.448;9.984;2023-02-01T11:41:22;6.20;35.40
4308;DHT22;2167;53.448;9.984;2023-02-01T11:43:57;6.20;35.70
4308;DHT22;2167;53.448;9.984;2023-02-01T11:46:29;6.20;35.50
4308;DHT22;2167;53.448;9.984;2023-02-01T11:48:56;6.10;35.20
4308;DHT22;2167;53.448;9.984;2023-02-01T11:51:43;6.00;35.50
4308;DHT22;2167;53.448;9.984;2023-02-01T11:54:18;6.00;36.40
4308;DHT22;2167;53.448;9.984;2023-02-01T12:02:13;6.10;36.20
4308;DHT22;2167;53.448;9.984;2023-02-01T12:08:09;6.00;36.00
4308;DHT22;2167;53.448;9.984;2023-02-01T12:13:55;6.20;36.50
4308;DHT22;2167;53.448;9.984;2023-02-01T12:22:26;6.10;36.20
4308;DHT22;2167;53.448;9.984;2023-02-01T12:25:09;6.10;36.40
4308;DHT22;2167;53.448;9.984;2023-02-01T12:41:47;5.90;34.20
4308;DHT22;2167;53.448;9.984;2023-02-01T12:49:36;5.50;33.10
4308;DHT22;2167;53.448;9.984;2023-02-01T12:55:04;5.20;32.10
4308;DHT22;2167;53.448;9.984;2023-02-01T12:57:35;5.00;32.70
4308;DHT22;2167;53.448;9.984;2023-02-01T13:02:48;4.80;32.30
4308;DHT22;2167;53.448;9.984;2023-02-01T13:05:21;4.70;32.60
4308;DHT22;2167;53.448;9.984;2023-02-01T13:07:55;4.60;33.10
4308;DHT22;2167;53.448;9.984;2023-02-01T13:10:31;4.60;34.10
4308;DHT22;2167;53.448;9.984;2023-02-01T13:13:09;4.60;34.40
4308;DHT22;2167;53.448;9.984;2023-02-01T13:15:51;4.60;34.70
4308;DHT22;2167;53.448;9.984;2023-02-01T13:18:21;4.60;34.80
4308;DHT22;2167;53.448;9.984;2023-02-01T13:21:12;4.50;34.30
4308;DHT22;2167;53.448;9.984;2023-02-01T13:23:42;4.50;34.50
4308;DHT22;2167;53.448;9.984;2023-02-01T13:26:10;4.50;34.50
4308;DHT22;2167;53.448;9.984;2023-02-01T13:28:55;4.50;34.80
4308;DHT22;2167;53.448;9.984;2023-02-01T13:40:36;4.70;37.10
4308;DHT22;2167;53.448;9.984;2023-02-01T13:45:43;4.80;36.20
4308;DHT22;2167;53.448;9.984;2023-02-01T13:48:52;4.90;36.60
4308;DHT22;2167;53.448;9.984;2023-02-01T13:51:10;4.90;35.90
4308;DHT22;2167;53.448;9.984;2023-02-01T13:53:36;5.00;35.30
4308;DHT22;2167;53.448;9.984;2023-02-01T13:56:19;5.00;35.20
4308;DHT22;2167;53.448;9.984;2023-02-01T13:58:48;5.00;34.30
4308;DHT22;2167;53.448;9.984;2023-02-01T14:03:59;4.80;32.80
4308;DHT22;2167;53.448;9.984;2023-02-01T14:09:15;4.80;33.50
4308;DHT22;2167;53.448;9.984;2023-02-01T14:14:50;4.80;33.90
4308;DHT22;2167;53.448;9.984;2023-02-01T14:19:47;4.80;34.50
4308;DHT22;2167;53.448;9.984;2023-02-01T14:24:51;4.80;35.00
4308;DHT22;2167;53.448;9.984;2023-02-01T14:27:26;4.80;35.20
4308;DHT22;2167;53.448;9.984;2023-02-01T14:29:57;4.90;35.60
4308;DHT22;2167;53.448;9.984;2023-02-01T14:32:39;4.90;35.60
4308;DHT22;2167;53.448;9.984;2023-02-01T14:35:18;4.90;35.30
4308;DHT22;2167;53.448;9.984;2023-02-01T14:37:45;5.00;35.50
4308;DHT22;2167;53.448;9.984;2023-02-01T14:55:51;4.80;36.40
4308;DHT22;2167;53.448;9.984;2023-02-01T15:01:21;4.80;35.70
4308;DHT22;2167;53.448;9.984;2023-02-01T15:06:43;4.80;35.00
4308;DHT22;2167;53.448;9.984;2023-02-01T15:09:29;4.90;35.50
4308;DHT22;2167;53.448;9.984;2023-02-01T15:12:03;4.90;35.20
4308;DHT22;2167;53.448;9.984;2023-02-01T15:14:36;5.00;34.70
4308;DHT22;2167;53.448;9.984;2023-02-01T15:17:15;5.00;34.40
4308;DHT22;2167;53.448;9.984;2023-02-01T15:20:26;5.00;34.40
4308;DHT22;2167;53.448;9.984;2023-02-01T15:23:04;4.90;34.20
4308;DHT22;2167;53.448;9.984;2023-02-01T15:25:33;4.90;34.00
4308;DHT22;2167;53.448;9.984;2023-02-01T15:28:00;4.90;34.20
4308;DHT22;2167;53.448;9.984;2023-02-01T15:30:32;4.90;33.80
4308;DHT22;2167;53.448;9.984;2023-02-01T15:33:18;4.80;33.80
4308;DHT22;2167;53.448;9.984;2023-02-01T15:35:50;4.80;33.60
4308;DHT22;2167;53.448;9.984;2023-02-01T15:41:16;4.70;33.80
4308;DHT22;2167;53.448;9.984;2023-02-01T15:46:40;4.70;34.20
4308;DHT22;2167;53.448;9.984;2023-02-01T15:49:30;4.70;33.60
4308;DHT22;2167;53.448;9.984;2023-02-01T15:51:59;4.70;33.20
4308;DHT22;2167;53.448;9.984;2023-02-01T15:54:43;4.70;32.90
4308;DHT22;2167;53.448;9.984;2023-02-01T15:57:11;4.70;33.20
4308;DHT22;2167;53.448;9.984;2023-02-01T15:59:43;4.60;33.10
4308;DHT22;2167;53.448;9.984;2023-02-01T16:02:52;4.60;33.30
4308;DHT22;2167;53.448;9.984;2023-02-01T16:05:34;4.70;34.00
4308;DHT22;2167;53.448;9.984;2023-02-01T16:08:23;4.80;34.10
4308;DHT22;2167;53.448;9.984;2023-02-01T16:10:52;4.90;34.10
4308;DHT22;2167;53.448;9.984;2023-02-01T16:13:19;4.90;34.10
4308;DHT22;2167;53.448;9.984;2023-02-01T16:15:48;5.00;33.60
4308;DHT22;2167;53.448;9.984;2023-02-01T16:18:15;5.10;33.10
4308;DHT22;2167;53.448;9.984;2023-02-01T16:20:42;5.20;32.50
4308;DHT22;2167;53.448;9.984;2023-02-01T16:23:09;5.20;32.20
4308;DHT22;2167;53.448;9.984;2023-02-01T16:25:35;5.20;31.90
4308;DHT22;2167;53.448;9.984;2023-02-01T16:28:01;5.20;31.50
4308;DHT22;2167;53.448;9.984;2023-02-01T16:30:27;5.30;32.10
4308;DHT22;2167;53.448;9.984;2023-02-01T16:32:56;5.30;32.30
4308;DHT22;2167;53.448;9.984;2023-02-01T16:35:25;5.30;31.60
4308;DHT22;2167;53.448;9.984;2023-02-01T16:37:52;5.40;31.60
4308;DHT22;2167;53.448;9.984;2023-02-01T16:40:19;5.40;31.60
4308;DHT22;2167;53.448;9.984;2023-02-01T16:42:47;5.40;31.80
4308;DHT22;2167;53.448;9.984;2023-02-01T16:45:13;5.30;32.40
4308;DHT22;2167;53.448;9.984;2023-02-01T16:47:48;5.40;32.80
4308;DHT22;2167;53.448;9.984;2023-02-01T16:50:21;5.30;33.00
4308;DHT22;2167;53.448;9.984;2023-02-01T16:52:47;5.30;33.50
4308;DHT22;2167;53.448;9.984;2023-02-01T16:55:14;5.30;33.70
4308;DHT22;2167;53.448;9.984;2023-02-01T16:57:41;5.30;33.60
4308;DHT22;2167;53.448;9.984;2023-02-01T17:00:11;5.30;33.70
4308;DHT22;2167;53.448;9.984;2023-02-01T17:02:37;5.30;33.80
4308;DHT22;2167;53.448;9.984;2023-02-01T17:05:03;5.40;33.80
4308;DHT22;2167;53.448;9.984;2023-02-01T17:07:29;5.40;33.50
4308;DHT22;2167;53.448;9.984;2023-02-01T17:09:55;5.40;33.40
4308;DHT22;2167;53.448;9.984;2023-02-01T17:12:26;5.40;33.20
4308;DHT22;2167;53.448;9.984;2023-02-01T17:14:52;5.40;33.20
4308;DHT22;2167;53.448;9.984;2023-02-01T17:17:22;5.40;33.00
4308;DHT22;2167;53.448;9.984;2023-02-01T17:19:50;5.50;33.10
4308;DHT22;2167;53.448;9.984;2023-02-01T17:22:19;5.50;31.80
4308;DHT22;2167;53.448;9.984;2023-02-01T17:24:46;5.50;31.60
4308;DHT22;2167;53.448;9.984;2023-02-01T17:27:11;5.50;31.30
4308;DHT22;2167;53.448;9.984;2023-02-01T17:29:37;5.50;30.80
4308;DHT22;2167;53.448;9.984;2023-02-01T17:32:03;5.50;29.90
4308;DHT22;2167;53.448;9.984;2023-02-01T17:34:29;5.60;29.70
4308;DHT22;2167;53.448;9.984;2023-02-01T17:36:55;5.60;29.30
4308;DHT22;2167;53.448;9.984;2023-02-01T17:39:21;5.60;28.30
4308;DHT22;2167;53.448;9.984;2023-02-01T17:42:10;5.50;27.90
4308;DHT22;2167;53.448;9.984;2023-02-01T17:44:36;5.50;27.10
4308;DHT22;2167;53.448;9.984;2023-02-01T17:47:02;5.50;25.80
4308;DHT22;2167;53.448;9.984;2023-02-01T17:49:28;5.40;26.10
4308;DHT22;2167;53.448;9.984;2023-02-01T17:51:55;5.40;25.70
4308;DHT22;2167;53.448;9.984;2023-02-01T17:54:21;5.40;24.60
4308;DHT22;2167;53.448;9.984;2023-02-01T17:56:47;5.40;24.70
4308;DHT22;2167;53.448;9.984;2023-02-01T17:59:15;5.50;24.70
4308;DHT22;2167;53.448;9.984;2023-02-01T18:01:43;5.50;24.20
4308;DHT22;2167;53.448;9.984;2023-02-01T18:04:18;5.50;24.30
4308;DHT22;2167;53.448;9.984;2023-02-01T18:06:44;5.40;24.40
4308;DHT22;2167;53.448;9.984;2023-02-01T18:09:10;5.40;24.00
4308;DHT22;2167;53.448;9.984;2023-02-01T18:11:35;5.40;24.20
4308;DHT22;2167;53.448;9.984;2023-02-01T18:14:01;5.50;24.70
4308;DHT22;2167;53.448;9.984;2023-02-01T18:16:32;5.50;24.30
4308;DHT22;2167;53.448;9.984;2023-02-01T18:18:59;5.50;23.80
4308;DHT22;2167;53.448;9.984;2023-02-01T18:21:40;5.50;23.30
4308;DHT22;2167;53.448;9.984;2023-02-01T18:24:11;5.40;23.00
4308;DHT22;2167;53.448;9.984;2023-02-01T18:26:37;5.40;23.10
4308;DHT22;2167;53.448;9.984;2023-02-01T18:29:03;5.30;23.00
4308;DHT22;2167;53.448;9.984;2023-02-01T18:31:31;5.30;23.20
4308;DHT22;2167;53.448;9.984;2023-02-01T18:33:59;5.30;23.60
4308;DHT22;2167;53.448;9.984;2023-02-01T18:36:26;5.20;23.10
4308;DHT22;2167;53.448;9.984;2023-02-01T18:38:52;5.20;23.30